createdAt,value
2024-01-05T00:01:47.062Z,100681.61
2024-01-05T00:04:18.191Z,100685.90
2024-01-05T00:06:50.894Z,100682.30
2024-01-05T00:09:22.244Z,100678.66
2024-01-05T00:11:55.115Z,100675.81
2024-01-05T00:14:26.493Z,100673.38
2024-01-05T00:17:00.415Z,100672.17
2024-01-05T00:19:31.681Z,100672.71
2024-01-05T00:22:03.002Z,100671.05
2024-01-05T00:24:34.112Z,100672.71
2024-01-05T00:27:05.982Z,100669.64
2024-01-05T00:29:39.595Z,100666.45
2024-01-05T00:32:11.091Z,100661.20
2024-01-05T00:34:42.402Z,100666.54
2024-01-05T00:37:13.753Z,100666.89
2024-01-05T00:39:46.192Z,100672.10
2024-01-05T00:42:17.774Z,100670.01
2024-01-05T00:44:48.899Z,100676.25
2024-01-05T00:47:20.157Z,100672.66
2024-01-05T00:49:51.610Z,100667.41
2024-01-05T00:52:22.873Z,100666.16
2024-01-05T00:54:53.842Z,100670.05
2024-01-05T00:57:24.966Z,100667.30
2024-01-05T00:59:56.586Z,100660.00
2024-01-05T01:02:28.529Z,100659.67
2024-01-05T01:05:01.013Z,100663.17
2024-01-05T01:07:32.496Z,100664.20
2024-01-05T01:10:03.829Z,100667.16
2024-01-05T01:12:35.159Z,100666.11
2024-01-05T01:15:08.002Z,100662.13
2024-01-05T01:17:39.247Z,100660.48
2024-01-05T01:20:12.154Z,100658.45
2024-01-05T01:22:43.543Z,100656.69
2024-01-05T01:25:14.974Z,100657.22
2024-01-05T01:27:46.173Z,100656.38
2024-01-05T01:30:17.880Z,100656.72
2024-01-05T01:32:49.051Z,100658.66
2024-01-05T01:35:20.297Z,100661.09
2024-01-05T01:37:51.339Z,100658.73
2024-01-05T01:40:22.755Z,100657.33
2024-01-05T01:42:54.671Z,100656.08
2024-01-05T01:45:26.831Z,100657.15
2024-01-05T01:47:58.748Z,100653.54
2024-01-05T01:50:30.155Z,100652.52
2024-01-05T01:53:01.333Z,100652.52
2024-01-05T01:55:32.991Z,100647.07
2024-01-05T01:58:04.923Z,100647.27
2024-01-05T02:00:36.757Z,100642.55
2024-01-05T02:03:08.710Z,100643.98
2024-01-05T02:05:40.546Z,100639.11
2024-01-05T02:08:11.894Z,100634.06
2024-01-05T02:10:43.335Z,100633.88
2024-01-05T02:13:14.601Z,100633.15
2024-01-05T02:15:46.156Z,100626.94
2024-01-05T02:18:18.701Z,100628.10
2024-01-05T02:20:50.385Z,100632.73
2024-01-05T02:23:28.773Z,100628.02
2024-01-05T02:26:00.455Z,100627.35
2024-01-05T02:28:31.688Z,100628.64
2024-01-05T02:31:03.176Z,100628.27
2024-01-05T02:33:34.863Z,100624.70
2024-01-05T02:36:06.759Z,100615.54
2024-01-05T02:38:37.788Z,100616.02
2024-01-05T02:41:09.608Z,100614.34
2024-01-05T02:43:40.772Z,100610.07
2024-01-05T02:46:11.938Z,100608.21
2024-01-05T02:48:43.449Z,100606.05
2024-01-05T02:51:17.127Z,100603.30
2024-01-05T02:53:48.427Z,100601.80
2024-01-05T02:56:24.455Z,100604.77
2024-01-05T02:58:56.361Z,100608.34
2024-01-05T03:01:27.966Z,100610.23
2024-01-05T03:04:02.481Z,100613.69
2024-01-05T03:06:34.529Z,100610.84
2024-01-05T03:09:10.104Z,100606.60
2024-01-05T03:11:41.719Z,100607.77
2024-01-05T03:14:15.051Z,100606.57
2024-01-05T03:16:46.582Z,100608.58
2024-01-05T03:19:17.773Z,100609.88
2024-01-05T03:21:48.994Z,100610.63
2024-01-05T03:24:20.548Z,100606.67
2024-01-05T03:26:52.441Z,100610.54
2024-01-05T03:29:24.100Z,100610.18
2024-01-05T03:31:55.336Z,100610.65
2024-01-05T03:34:26.762Z,100610.80
2024-01-05T03:36:58.349Z,100603.84
2024-01-05T03:39:29.728Z,100605.13
2024-01-05T03:42:01.216Z,100606.50
2024-01-05T03:44:32.325Z,100608.83
2024-01-05T03:47:03.623Z,100609.27
2024-01-05T03:49:35.076Z,100605.38
2024-01-05T03:52:07.309Z,100605.91
2024-01-05T03:54:38.630Z,100599.88
2024-01-05T03:57:10.425Z,100593.27
2024-01-05T03:59:43.728Z,100593.19
2024-01-05T04:02:14.887Z,100596.16
2024-01-05T04:04:46.644Z,100598.87
2024-01-05T04:07:18.014Z,100594.84
2024-01-05T04:09:51.789Z,100589.27
2024-01-05T04:12:23.036Z,100582.29
2024-01-05T04:14:54.042Z,100577.82
2024-01-05T04:17:25.793Z,100576.39
2024-01-05T04:19:57.116Z,100576.71
2024-01-05T04:22:32.591Z,100567.88
2024-01-05T04:25:03.903Z,100564.30
2024-01-05T04:27:35.213Z,100558.39
2024-01-05T04:30:08.216Z,100553.86
2024-01-05T04:32:39.533Z,100552.68
2024-01-05T04:35:12.045Z,100552.08
2024-01-05T04:37:43.321Z,100542.80
2024-01-05T04:40:15.982Z,100538.35
2024-01-05T04:42:47.598Z,100534.81
2024-01-05T04:45:19.167Z,100531.45
2024-01-05T04:47:50.288Z,100530.98
2024-01-05T04:50:21.608Z,100526.51
2024-01-05T04:52:53.400Z,100525.55
2024-01-05T04:55:24.942Z,100524.55
2024-01-05T04:57:56.019Z,100522.45
2024-01-05T05:00:27.039Z,100519.27
2024-01-05T05:02:58.435Z,100514.85
2024-01-05T05:05:29.943Z,100510.05
2024-01-05T05:08:01.377Z,100507.80
2024-01-05T05:10:32.533Z,100500.45
2024-01-05T05:13:03.440Z,100497.23
2024-01-05T05:15:34.695Z,100497.80
2024-01-05T05:18:06.951Z,100490.95
2024-01-05T05:20:38.386Z,100495.41
2024-01-05T05:23:09.698Z,100494.27
2024-01-05T05:25:40.691Z,100499.14
2024-01-05T05:28:11.765Z,100499.31
2024-01-05T05:30:43.078Z,100499.45
2024-01-05T05:33:14.813Z,100503.92
2024-01-05T05:35:45.888Z,100509.64
2024-01-05T05:38:17.169Z,100506.96
2024-01-05T05:40:48.682Z,100515.50
2024-01-05T05:43:19.894Z,100520.19
2024-01-05T05:45:51.352Z,100521.58
2024-01-05T05:48:22.968Z,100526.71
2024-01-05T05:50:54.091Z,100528.02
2024-01-05T05:53:25.401Z,100525.64
2024-01-05T05:55:56.612Z,100526.21
2024-01-05T05:58:28.873Z,100525.51
2024-01-05T06:01:00.080Z,100528.77
2024-01-05T06:03:31.249Z,100532.65
2024-01-05T06:06:02.883Z,100534.45
2024-01-05T06:08:34.098Z,100533.38
2024-01-05T06:11:05.436Z,100535.83
2024-01-05T06:13:38.214Z,100538.52
2024-01-05T06:16:10.441Z,100541.13
2024-01-05T06:18:43.302Z,100544.57
2024-01-05T06:21:14.803Z,100543.40
2024-01-05T06:23:45.898Z,100542.78
2024-01-05T06:26:17.445Z,100538.59
2024-01-05T06:28:48.642Z,100536.61
2024-01-05T06:31:20.552Z,100531.52
2024-01-05T06:33:51.983Z,100533.15
2024-01-05T06:36:23.356Z,100533.45
2024-01-05T06:38:54.844Z,100527.85
2024-01-05T06:41:26.339Z,100528.56
2024-01-05T06:43:57.604Z,100521.77
2024-01-05T06:46:29.589Z,100523.87
2024-01-05T06:49:02.221Z,100521.63
2024-01-05T06:51:40.682Z,100527.06
2024-01-05T06:54:14.249Z,100527.52
2024-01-05T06:56:45.757Z,100525.97
2024-01-05T06:59:17.334Z,100524.63
2024-01-05T07:01:48.408Z,100514.58
2024-01-05T07:04:19.308Z,100519.92
2024-01-05T07:06:50.748Z,100517.42
2024-01-05T07:09:21.990Z,100511.94
2024-01-05T07:11:53.865Z,100515.35
2024-01-05T07:14:24.987Z,100517.33
2024-01-05T07:16:56.414Z,100515.11
2024-01-05T07:19:27.816Z,100517.99
2024-01-05T07:21:59.013Z,100515.48
2024-01-05T07:24:30.369Z,100516.64
2024-01-05T07:27:01.434Z,100515.14
2024-01-05T07:29:32.717Z,100512.98
2024-01-05T07:32:05.930Z,100511.22
2024-01-05T07:34:37.008Z,100510.38
2024-01-05T07:37:08.675Z,100504.39
2024-01-05T07:39:40.781Z,100500.55
2024-01-05T07:42:12.234Z,100503.27
2024-01-05T07:44:43.429Z,100501.01
2024-01-05T07:47:15.514Z,100498.18
2024-01-05T07:49:47.218Z,100495.86
2024-01-05T07:52:18.829Z,100496.40
2024-01-05T07:54:50.115Z,100494.73
2024-01-05T07:57:21.577Z,100494.69
2024-01-05T07:59:52.713Z,100495.70
2024-01-05T08:02:24.092Z,100496.52
2024-01-05T08:04:55.553Z,100495.86
2024-01-05T08:07:26.631Z,100491.98
2024-01-05T08:09:58.168Z,100496.71
2024-01-05T08:12:32.261Z,100495.67
2024-01-05T08:15:04.908Z,100492.67
2024-01-05T08:17:36.147Z,100491.64
2024-01-05T08:20:09.354Z,100490.93
2024-01-05T08:22:40.849Z,100489.42
2024-01-05T08:25:12.941Z,100486.08
2024-01-05T08:27:44.877Z,100484.29
2024-01-05T08:30:16.759Z,100477.96
2024-01-05T08:32:50.984Z,100476.35
2024-01-05T08:35:22.208Z,100475.90
2024-01-05T08:37:53.603Z,100481.85
2024-01-05T08:40:27.719Z,100481.01
2024-01-05T08:42:59.910Z,100475.59
2024-01-05T08:45:31.173Z,100469.20
2024-01-05T08:48:02.532Z,100469.63
2024-01-05T08:50:36.188Z,100466.27
2024-01-05T08:53:07.846Z,100464.58
2024-01-05T08:55:39.152Z,100466.18
2024-01-05T08:58:11.578Z,100465.30
2024-01-05T09:00:43.099Z,100462.42
2024-01-05T09:03:15.192Z,100461.03
2024-01-05T09:05:47.535Z,100458.44
2024-01-05T09:08:22.045Z,100458.88
2024-01-05T09:10:53.277Z,100455.59
2024-01-05T09:13:24.495Z,100450.00
2024-01-05T09:15:55.742Z,100451.58
2024-01-05T09:18:27.110Z,100454.86
2024-01-05T09:20:58.389Z,100457.92
2024-01-05T09:23:29.438Z,100457.07
2024-01-05T09:26:00.338Z,100457.73
2024-01-05T09:28:31.296Z,100455.65
2024-01-05T09:31:02.639Z,100452.29
2024-01-05T09:33:34.376Z,100449.28
2024-01-05T09:36:06.410Z,100447.14
2024-01-05T09:38:37.667Z,100443.20
2024-01-05T09:41:14.725Z,100443.92
2024-01-05T09:43:49.838Z,100443.78
2024-01-05T09:46:22.666Z,100445.56
2024-01-05T09:48:55.149Z,100443.91
2024-01-05T09:51:27.578Z,100441.11
2024-01-05T09:53:58.774Z,100438.05
2024-01-05T09:56:31.562Z,100433.50
2024-01-05T09:59:03.791Z,100424.02
2024-01-05T10:01:37.130Z,100420.27
2024-01-05T10:04:10.691Z,100420.63
2024-01-05T10:06:42.152Z,100416.52
2024-01-05T10:09:13.361Z,100413.75
2024-01-05T10:11:48.198Z,100413.36
2024-01-05T10:14:19.754Z,100411.64
2024-01-05T10:16:50.784Z,100407.26
2024-01-05T10:19:24.862Z,100403.10
2024-01-05T10:21:56.182Z,100397.21
2024-01-05T10:24:31.249Z,100391.73
2024-01-05T10:27:07.955Z,100386.48
2024-01-05T10:29:43.853Z,100376.68
2024-01-05T10:32:17.630Z,100369.84
2024-01-05T10:34:50.251Z,100359.55
2024-01-05T10:37:23.462Z,100352.54
2024-01-05T10:39:57.507Z,100345.89
2024-01-05T10:42:30.113Z,100343.47
2024-01-05T10:45:02.554Z,100345.37
2024-01-05T10:47:33.979Z,100349.86
2024-01-05T10:50:06.349Z,100344.36
2024-01-05T10:52:38.961Z,100333.90
2024-01-05T10:55:12.828Z,100325.76
2024-01-05T10:57:45.523Z,100314.08
2024-01-05T11:00:19.466Z,100302.36
2024-01-05T11:02:53.676Z,100291.95
2024-01-05T11:05:26.582Z,100280.24
2024-01-05T11:08:01.792Z,100274.48
2024-01-05T11:10:45.063Z,100269.64
2024-01-05T11:13:33.945Z,100273.02
2024-01-05T11:16:25.273Z,100276.84
2024-01-05T11:19:19.499Z,100274.02
2024-01-05T11:21:57.064Z,100271.98
2024-01-05T11:24:30.053Z,100269.05
2024-01-05T11:27:01.526Z,100256.66
2024-01-05T11:29:52.813Z,100243.98
2024-01-05T11:32:39.622Z,100237.79
2024-01-05T11:35:38.541Z,100233.77
2024-01-05T11:38:27.902Z,100223.42
2024-01-05T11:40:59.513Z,100213.31
2024-01-05T11:43:39.370Z,100206.41
2024-01-05T11:46:11.215Z,100198.81
2024-01-05T11:48:55.103Z,100191.55
2024-01-05T11:51:26.581Z,100189.09
2024-01-05T11:53:58.314Z,100181.92
2024-01-05T11:56:29.457Z,100166.30
2024-01-05T11:59:00.965Z,100164.11
2024-01-05T12:01:32.272Z,100160.10
2024-01-05T12:04:03.692Z,100155.92
2024-01-05T12:06:35.074Z,100145.28
2024-01-05T12:09:08.382Z,100143.42
2024-01-05T12:11:40.114Z,100144.64
2024-01-05T12:14:11.249Z,100140.48
2024-01-05T12:16:42.285Z,100138.34
2024-01-05T12:19:23.999Z,100128.61
2024-01-05T12:21:56.354Z,100121.93
2024-01-05T12:24:27.884Z,100113.36
2024-01-05T12:26:59.481Z,100099.80
2024-01-05T12:29:31.999Z,100093.64
2024-01-05T12:32:04.349Z,100085.96
2024-01-05T12:34:35.574Z,100074.54
2024-01-05T12:37:13.968Z,100067.86
2024-01-05T12:39:45.109Z,100066.24
2024-01-05T12:42:17.132Z,100069.63
2024-01-05T12:44:48.402Z,100062.97
2024-01-05T12:47:32.997Z,100056.73
2024-01-05T12:50:05.748Z,100054.84
2024-01-05T12:52:38.267Z,100052.36
2024-01-05T12:55:10.681Z,100050.23
2024-01-05T12:57:42.186Z,100045.63
2024-01-05T13:00:14.849Z,100041.10
2024-01-05T13:02:46.058Z,100035.96
2024-01-05T13:05:35.652Z,100030.95
2024-01-05T13:08:07.850Z,100027.21
2024-01-05T13:10:40.981Z,100025.13
2024-01-05T13:13:12.318Z,100021.61
2024-01-05T13:15:44.062Z,100010.41
2024-01-05T13:18:15.619Z,100007.52
2024-01-05T13:20:46.894Z,100008.98
2024-01-05T13:23:19.454Z,100006.44
2024-01-05T13:25:51.542Z,100001.06
2024-01-05T13:28:23.051Z,99998.39
2024-01-05T13:30:54.309Z,99994.20
2024-01-05T13:33:25.912Z,99997.10
2024-01-05T13:35:58.107Z,99991.56
2024-01-05T13:38:29.374Z,99989.98
2024-01-05T13:41:01.271Z,99990.45
2024-01-05T13:43:32.304Z,99993.41
2024-01-05T13:46:04.804Z,99988.08
2024-01-05T13:48:36.330Z,99981.63
2024-01-05T13:51:08.196Z,99980.28
2024-01-05T13:53:39.281Z,99980.45
2024-01-05T13:56:10.631Z,99973.51
2024-01-05T13:58:42.472Z,99966.60
2024-01-05T14:01:15.218Z,99965.39
2024-01-05T14:03:47.643Z,99963.74
2024-01-05T14:06:18.956Z,99961.13
2024-01-05T14:08:50.462Z,99962.92
2024-01-05T14:11:21.751Z,99968.36
2024-01-05T14:13:53.175Z,99967.10
2024-01-05T14:16:24.405Z,99962.66
2024-01-05T14:18:55.941Z,99959.02
2024-01-05T14:21:29.615Z,99952.65
2024-01-05T14:24:00.933Z,99946.16
2024-01-05T14:26:32.651Z,99944.33
2024-01-05T14:29:04.149Z,99943.56
2024-01-05T14:31:36.159Z,99942.83
2024-01-05T14:34:08.133Z,99940.80
2024-01-05T14:36:39.950Z,99945.66
2024-01-05T14:39:11.721Z,99947.27
2024-01-05T14:41:43.733Z,99939.55
2024-01-05T14:44:15.066Z,99932.64
2024-01-05T14:46:46.236Z,99934.47
2024-01-05T14:49:17.611Z,99926.80
2024-01-05T14:51:50.660Z,99919.02
2024-01-05T14:54:22.120Z,99909.28
2024-01-05T14:56:53.437Z,99899.92
2024-01-05T14:59:24.573Z,99897.52
2024-01-05T15:01:58.787Z,99898.71
2024-01-05T15:04:32.454Z,99899.59
2024-01-05T15:07:04.223Z,99894.02
2024-01-05T15:09:37.497Z,99888.63
2024-01-05T15:12:10.137Z,99886.81
2024-01-05T15:14:41.408Z,99879.09
2024-01-05T15:17:12.820Z,99869.77
2024-01-05T15:19:44.356Z,99868.73
2024-01-05T15:22:15.979Z,99874.33
2024-01-05T15:24:49.052Z,99867.37
2024-01-05T15:27:20.353Z,99862.40
2024-01-05T15:29:51.807Z,99863.98
2024-01-05T15:32:23.232Z,99866.05
2024-01-05T15:34:54.532Z,99866.42
2024-01-05T15:37:25.975Z,99868.40
2024-01-05T15:39:59.747Z,99876.64
2024-01-05T15:42:31.115Z,99878.60
2024-01-05T15:45:02.209Z,99877.51
2024-01-05T15:47:33.555Z,99872.92
2024-01-05T15:50:05.077Z,99861.89
2024-01-05T15:52:36.468Z,99852.64
2024-01-05T15:55:08.994Z,99850.69
2024-01-05T15:57:40.303Z,99853.69
2024-01-05T16:00:13.908Z,99856.09
2024-01-05T16:02:45.204Z,99855.51
2024-01-05T16:05:16.926Z,99854.14
2024-01-05T16:07:48.636Z,99854.33
2024-01-05T16:10:19.749Z,99853.23
2024-01-05T16:12:50.892Z,99846.27
2024-01-05T16:15:23.738Z,99845.02
2024-01-05T16:17:55.385Z,99845.01
2024-01-05T16:20:26.881Z,99843.59
2024-01-05T16:22:58.221Z,99840.10
2024-01-05T16:25:29.202Z,99840.58
2024-01-05T16:28:00.367Z,99839.95
2024-01-05T16:30:31.474Z,99839.31
2024-01-05T16:33:03.067Z,99845.30
2024-01-05T16:35:34.289Z,99839.86
2024-01-05T16:38:05.853Z,99836.55
2024-01-05T16:40:38.181Z,99834.96
2024-01-05T16:43:09.946Z,99831.75
2024-01-05T16:45:44.400Z,99829.67
2024-01-05T16:48:17.558Z,99834.67
2024-01-05T16:50:49.103Z,99836.84
2024-01-05T16:53:20.886Z,99830.67
2024-01-05T16:55:52.002Z,99820.63
2024-01-05T16:58:23.855Z,99808.69
2024-01-05T17:00:56.257Z,99808.40
2024-01-05T17:03:27.899Z,99805.21
2024-01-05T17:05:59.403Z,99790.81
2024-01-05T17:08:30.624Z,99792.33
2024-01-05T17:11:01.867Z,99792.75
2024-01-05T17:13:35.104Z,99788.97
2024-01-05T17:16:08.980Z,99784.58
2024-01-05T17:18:41.537Z,99793.11
2024-01-05T17:21:13.463Z,99793.77
2024-01-05T17:23:44.885Z,99793.55
2024-01-05T17:26:16.055Z,99793.05
2024-01-05T17:28:47.247Z,99792.67
2024-01-05T17:31:19.304Z,99789.73
2024-01-05T17:33:50.499Z,99790.42
2024-01-05T17:36:27.968Z,99786.00
2024-01-05T17:38:59.537Z,99786.43
2024-01-05T17:41:30.840Z,99784.61
2024-01-05T17:44:02.023Z,99783.66
2024-01-05T17:46:32.971Z,99778.83
2024-01-05T17:49:04.799Z,99768.63
2024-01-05T17:51:40.484Z,99760.30
2024-01-05T17:54:11.775Z,99758.17
2024-01-05T17:56:42.793Z,99760.48
2024-01-05T17:59:13.977Z,99753.40
2024-01-05T18:01:46.961Z,99757.42
2024-01-05T18:04:18.985Z,99756.52
2024-01-05T18:06:51.199Z,99756.94
2024-01-05T18:09:22.574Z,99751.41
2024-01-05T18:11:55.377Z,99743.14
2024-01-05T18:14:26.438Z,99743.71
2024-01-05T18:16:57.539Z,99740.80
2024-01-05T18:19:29.172Z,99744.59
2024-01-05T18:22:01.974Z,99741.20
2024-01-05T18:24:36.383Z,99741.43
2024-01-05T18:27:08.181Z,99744.79
2024-01-05T18:29:39.626Z,99746.79
2024-01-05T18:32:11.439Z,99748.83
2024-01-05T18:34:46.791Z,99754.17
2024-01-05T18:37:19.870Z,99751.00
2024-01-05T18:39:51.122Z,99750.34
2024-01-05T18:42:22.398Z,99745.27
2024-01-05T18:44:53.521Z,99739.20
2024-01-05T18:47:25.161Z,99737.40
2024-01-05T18:49:56.472Z,99745.66
2024-01-05T18:52:27.584Z,99747.77
2024-01-05T18:54:59.681Z,99758.52
2024-01-05T18:57:31.018Z,99756.52
2024-01-05T19:00:02.695Z,99761.09
2024-01-05T19:02:35.149Z,99763.27
2024-01-05T19:05:08.258Z,99761.94
2024-01-05T19:07:39.497Z,99757.80
2024-01-05T19:10:12.038Z,99759.06
2024-01-05T19:12:44.721Z,99760.08
2024-01-05T19:15:16.233Z,99761.64
2024-01-05T19:17:47.621Z,99769.33
2024-01-05T19:20:18.913Z,99773.37
2024-01-05T19:22:50.346Z,99776.42
2024-01-05T19:25:21.914Z,99762.27
2024-01-05T19:27:53.450Z,99766.13
2024-01-05T19:30:24.986Z,99765.90
2024-01-05T19:32:56.190Z,99768.03
2024-01-05T19:35:27.184Z,99761.11
2024-01-05T19:38:00.617Z,99761.68
2024-01-05T19:40:33.308Z,99769.64
2024-01-05T19:43:07.388Z,99763.27
2024-01-05T19:45:44.246Z,99767.77
2024-01-05T19:48:16.493Z,99771.37
2024-01-05T19:50:47.830Z,99764.21
2024-01-05T19:53:19.332Z,99757.48
2024-01-05T19:55:50.550Z,99757.69
2024-01-05T19:58:21.598Z,99764.38
2024-01-05T20:00:52.852Z,99766.20
2024-01-05T20:03:25.952Z,99769.48
2024-01-05T20:05:58.993Z,99767.70
2024-01-05T20:08:31.306Z,99784.90
2024-01-05T20:11:15.488Z,99781.98
2024-01-05T20:13:58.733Z,99773.05
2024-01-05T20:16:30.693Z,99758.90
2024-01-05T20:19:07.475Z,99763.61
2024-01-05T20:21:43.937Z,99754.73
2024-01-05T20:24:16.905Z,99746.36
2024-01-05T20:26:51.906Z,99744.42
2024-01-05T20:29:23.082Z,99746.56
2024-01-05T20:31:56.851Z,99744.56
2024-01-05T20:34:29.768Z,99734.47
2024-01-05T20:37:01.815Z,99725.94
2024-01-05T20:39:33.588Z,99713.99
2024-01-05T20:42:05.317Z,99706.41
2024-01-05T20:44:38.516Z,99702.50
2024-01-05T20:47:09.813Z,99711.77
2024-01-05T20:49:40.939Z,99716.59
2024-01-05T20:52:12.401Z,99710.50
2024-01-05T20:54:43.559Z,99708.92
2024-01-05T20:57:15.009Z,99704.06
2024-01-05T20:59:46.578Z,99700.27
2024-01-05T21:02:18.176Z,99698.21
2024-01-05T21:04:50.748Z,99700.19
2024-01-05T21:07:22.975Z,99695.16
2024-01-05T21:09:54.733Z,99695.10
2024-01-05T21:12:28.892Z,99692.41
2024-01-05T21:15:02.748Z,99684.78
2024-01-05T21:17:34.167Z,99684.59
2024-01-05T21:20:16.121Z,99690.98
2024-01-05T21:23:00.474Z,99691.52
2024-01-05T21:25:40.985Z,99682.54
2024-01-05T21:28:18.928Z,99673.29
2024-01-05T21:30:54.134Z,99674.26
2024-01-05T21:33:25.472Z,99674.34
2024-01-05T21:35:57.522Z,99671.73
2024-01-05T21:38:55.591Z,99669.05
2024-01-05T21:41:48.239Z,99669.98
2024-01-05T21:44:38.386Z,99658.13
2024-01-05T21:47:27.143Z,99656.88
2024-01-05T21:50:11.074Z,99660.84
2024-01-05T21:52:45.906Z,99663.26
2024-01-05T21:55:50.290Z,99665.17
2024-01-05T21:58:25.431Z,99671.79
2024-01-05T22:00:56.654Z,99673.10
2024-01-05T22:03:30.529Z,99672.20
2024-01-05T22:06:01.829Z,99664.16
2024-01-05T22:08:35.978Z,99664.88
2024-01-05T22:11:08.604Z,99667.38
2024-01-05T22:13:40.498Z,99670.06
2024-01-05T22:16:17.612Z,99667.79
2024-01-05T22:18:50.594Z,99663.67
2024-01-05T22:21:22.081Z,99662.36
2024-01-05T22:23:53.514Z,99661.10
2024-01-05T22:26:33.508Z,99664.95
2024-01-05T22:29:05.844Z,99669.14
2024-01-05T22:31:37.174Z,99672.73
2024-01-05T22:34:08.916Z,99676.92
2024-01-05T22:36:40.248Z,99678.48
2024-01-05T22:39:13.733Z,99676.27
2024-01-05T22:41:45.359Z,99676.63
2024-01-05T22:44:16.728Z,99682.95
2024-01-05T22:46:47.821Z,99686.94
2024-01-05T22:49:19.301Z,99682.04
2024-01-05T22:51:50.538Z,99675.94
2024-01-05T22:54:21.832Z,99680.52
2024-01-05T22:56:52.821Z,99674.04
2024-01-05T22:59:24.069Z,99667.40
2024-01-05T23:01:57.892Z,99663.98
2024-01-05T23:04:29.412Z,99657.55
2024-01-05T23:07:00.633Z,99656.25
2024-01-05T23:09:32.849Z,99652.65
2024-01-05T23:12:03.938Z,99655.36
2024-01-05T23:14:35.118Z,99657.21
2024-01-05T23:17:06.587Z,99658.38
2024-01-05T23:19:38.537Z,99660.77
2024-01-05T23:22:10.585Z,99661.45
2024-01-05T23:24:42.470Z,99661.15
2024-01-05T23:27:13.611Z,99658.63
2024-01-05T23:29:44.727Z,99660.75
2024-01-05T23:32:16.268Z,99664.27
2024-01-05T23:34:47.564Z,99666.70
2024-01-05T23:37:18.631Z,99664.09
2024-01-05T23:39:50.116Z,99664.29
2024-01-05T23:42:21.307Z,99661.05
2024-01-05T23:44:53.362Z,99668.10
2024-01-05T23:47:24.568Z,99668.61
2024-01-05T23:49:56.670Z,99673.77
2024-01-05T23:52:28.056Z,99670.56
2024-01-05T23:54:59.764Z,99668.61
2024-01-05T23:57:31.494Z,99669.45
